EZY95BE EGCC-LMML
Flight info
| Callsign | EZY95BE |
|---|---|
| Flight time | 2h 57m |
| Altitude | 37000 |
| Route | LISTO P18 TELBA L151 MID UL612 OGULO DCT OKASI DCT OKEKO DCT MOU DCT MADIV DCT MOKIP DCT TUFTA DCT KOGAS DCT MEDAM DCT NITAM DCT MOGBO DCT TIDKA DCT KONER DCT KISTO DCT ROXAN DCT RONAB DCT PAL DCT MARON L12 GZO |
| Aircraft | A21N/M-SDE2E3FGHIRWXY/LB1 |
Departure
| Time | 2026-04-30 19:51 |
|---|---|
| Airport | Manchester Airport (EGCC) |
Arrival
| Time | 2026-04-30 22:49 |
|---|---|
| Airport | Malta International Airport (LMML) |
| Time | Latitude | Longitude | Altitude | Speed | Heading |
|---|---|---|---|---|---|
| 2026-04-30 19:17 | 53.36154 | -2.27616 | 232 ft | 0 kts | 14° |
| 2026-04-30 19:40 | 53.36143 | -2.27622 | 232 ft | 2 kts | 18° |
| 2026-04-30 19:40 | 53.36129 | -2.27629 | 232 ft | 2 kts | 16° |
| 2026-04-30 19:41 | 53.36114 | -2.27636 | 232 ft | 2 kts | 17° |
| 2026-04-30 19:41 | 53.36100 | -2.27643 | 232 ft | 2 kts | 17° |
| 2026-04-30 19:41 | 53.36087 | -2.27649 | 232 ft | 2 kts | 32° |
| 2026-04-30 19:41 | 53.36078 | -2.27669 | 232 ft | 2 kts | 74° |
| 2026-04-30 19:42 | 53.36078 | -2.27693 | 232 ft | 2 kts | 110° |
| 2026-04-30 19:42 | 53.36081 | -2.27705 | 232 ft | 0 kts | 109° |
| 2026-04-30 19:44 | 53.36078 | -2.27693 | 232 ft | 3 kts | 107° |
| 2026-04-30 19:45 | 53.36067 | -2.27647 | 232 ft | 5 kts | 131° |
| 2026-04-30 19:45 | 53.36023 | -2.27624 | 232 ft | 9 kts | 182° |
| 2026-04-30 19:45 | 53.35954 | -2.27634 | 232 ft | 10 kts | 186° |
| 2026-04-30 19:45 | 53.35881 | -2.27646 | 232 ft | 10 kts | 185° |
| 2026-04-30 19:46 | 53.35803 | -2.27659 | 232 ft | 11 kts | 186° |
| 2026-04-30 19:46 | 53.35726 | -2.27696 | 232 ft | 11 kts | 219° |
| 2026-04-30 19:46 | 53.35673 | -2.27802 | 232 ft | 12 kts | 232° |
| 2026-04-30 19:46 | 53.35619 | -2.27915 | 232 ft | 12 kts | 231° |
| 2026-04-30 19:47 | 53.35561 | -2.28032 | 232 ft | 13 kts | 229° |
| 2026-04-30 19:47 | 53.35513 | -2.28105 | 232 ft | 14 kts | 213° |
| 2026-04-30 19:47 | 53.35383 | -2.28167 | 232 ft | 15 kts | 189° |
| 2026-04-30 19:47 | 53.35281 | -2.28238 | 232 ft | 17 kts | 213° |
| 2026-04-30 19:48 | 53.35195 | -2.28375 | 232 ft | 16 kts | 231° |
| 2026-04-30 19:48 | 53.35122 | -2.28529 | 232 ft | 16 kts | 232° |
| 2026-04-30 19:48 | 53.35049 | -2.28679 | 232 ft | 16 kts | 229° |
| 2026-04-30 19:48 | 53.34970 | -2.28818 | 232 ft | 16 kts | 225° |
| 2026-04-30 19:49 | 53.34890 | -2.28953 | 232 ft | 16 kts | 225° |
| 2026-04-30 19:49 | 53.34744 | -2.29239 | 232 ft | 16 kts | 231° |
| 2026-04-30 19:49 | 53.34677 | -2.29328 | 232 ft | 8 kts | 200° |
| 2026-04-30 19:50 | 53.34562 | -2.29305 | 232 ft | 20 kts | 134° |
| 2026-04-30 19:50 | 53.34585 | -2.29137 | 232 ft | 14 kts | 54° |
| 2026-04-30 19:50 | 53.34768 | -2.28739 | 232 ft | 81 kts | 52° |
| 2026-04-30 19:50 | 53.35276 | -2.27685 | 232 ft | 148 kts | 50° |
| 2026-04-30 19:51 | 53.36042 | -2.26121 | 362 ft | 189 kts | 53° |
| 2026-04-30 19:51 | 53.36876 | -2.24395 | 1102 ft | 190 kts | 56° |
| 2026-04-30 19:51 | 53.37536 | -2.22654 | 2079 ft | 173 kts | 83° |
| 2026-04-30 19:51 | 53.37468 | -2.20714 | 2633 ft | 172 kts | 110° |
| 2026-04-30 19:52 | 53.36887 | -2.18915 | 3030 ft | 184 kts | 138° |
| 2026-04-30 19:52 | 53.35786 | -2.17640 | 3384 ft | 205 kts | 150° |
| 2026-04-30 19:52 | 53.34378 | -2.16811 | 3882 ft | 223 kts | 170° |
| 2026-04-30 19:52 | 53.32791 | -2.16837 | 4411 ft | 241 kts | 183° |
| 2026-04-30 19:53 | 53.31084 | -2.17151 | 4885 ft | 251 kts | 184° |
| 2026-04-30 19:53 | 53.29311 | -2.17472 | 5673 ft | 256 kts | 183° |
| 2026-04-30 19:53 | 53.27553 | -2.17773 | 6547 ft | 257 kts | 184° |
| 2026-04-30 19:53 | 53.25773 | -2.18066 | 7281 ft | 260 kts | 184° |
| 2026-04-30 19:54 | 53.23989 | -2.18354 | 8052 ft | 263 kts | 184° |
| 2026-04-30 19:54 | 53.22146 | -2.18649 | 8829 ft | 266 kts | 184° |
| 2026-04-30 19:54 | 53.20286 | -2.18944 | 9583 ft | 268 kts | 184° |
| 2026-04-30 19:54 | 53.18425 | -2.19239 | 10342 ft | 271 kts | 184° |
| 2026-04-30 19:55 | 53.16532 | -2.19536 | 10921 ft | 279 kts | 184° |
| 2026-04-30 19:55 | 53.14549 | -2.19847 | 11188 ft | 298 kts | 184° |
| 2026-04-30 19:55 | 53.12382 | -2.20183 | 11239 ft | 319 kts | 184° |
| 2026-04-30 19:55 | 53.10151 | -2.20535 | 11229 ft | 322 kts | 184° |
| 2026-04-30 19:56 | 53.07920 | -2.20888 | 11214 ft | 322 kts | 184° |
| 2026-04-30 19:56 | 53.05671 | -2.21240 | 11244 ft | 326 kts | 184° |
| 2026-04-30 19:56 | 53.03385 | -2.21598 | 11702 ft | 331 kts | 184° |
| 2026-04-30 19:56 | 53.01105 | -2.21957 | 12507 ft | 330 kts | 183° |
| 2026-04-30 19:57 | 52.98836 | -2.22312 | 13232 ft | 331 kts | 183° |
| 2026-04-30 19:57 | 52.96514 | -2.22672 | 13905 ft | 334 kts | 183° |
| 2026-04-30 19:57 | 52.94188 | -2.23030 | 14540 ft | 337 kts | 183° |
| 2026-04-30 19:57 | 52.91884 | -2.23388 | 15162 ft | 340 kts | 183° |
| 2026-04-30 19:58 | 52.89517 | -2.23753 | 15779 ft | 342 kts | 183° |
| 2026-04-30 19:58 | 52.87142 | -2.24183 | 16449 ft | 344 kts | 185° |
| 2026-04-30 19:58 | 52.84780 | -2.24841 | 17031 ft | 347 kts | 189° |
| 2026-04-30 19:58 | 52.82410 | -2.25725 | 17569 ft | 351 kts | 190° |
| 2026-04-30 19:59 | 52.80023 | -2.26640 | 18151 ft | 354 kts | 190° |
| 2026-04-30 19:59 | 52.77613 | -2.27561 | 18721 ft | 357 kts | 190° |
| 2026-04-30 19:59 | 52.72752 | -2.29424 | 19878 ft | 361 kts | 190° |
| 2026-04-30 20:00 | 52.70302 | -2.30362 | 20439 ft | 362 kts | 190° |
| 2026-04-30 20:00 | 52.67818 | -2.30833 | 20965 ft | 360 kts | 175° |
| 2026-04-30 20:00 | 52.65324 | -2.30045 | 21497 ft | 360 kts | 160° |
| 2026-04-30 20:00 | 52.63097 | -2.28167 | 21988 ft | 362 kts | 148° |
| 2026-04-30 20:01 | 52.58885 | -2.23570 | 23014 ft | 366 kts | 147° |
| 2026-04-30 20:01 | 52.56792 | -2.21284 | 23506 ft | 367 kts | 147° |
| 2026-04-30 20:01 | 52.54646 | -2.18941 | 23955 ft | 369 kts | 148° |
| 2026-04-30 20:02 | 52.50336 | -2.14243 | 24771 ft | 375 kts | 147° |
| 2026-04-30 20:02 | 52.48120 | -2.11830 | 25157 ft | 378 kts | 147° |
| 2026-04-30 20:03 | 52.43708 | -2.07039 | 25895 ft | 384 kts | 148° |
| 2026-04-30 20:03 | 52.41484 | -2.04628 | 26255 ft | 387 kts | 147° |
| 2026-04-30 20:03 | 52.39233 | -2.02191 | 26612 ft | 389 kts | 147° |
| 2026-04-30 20:03 | 52.36963 | -1.99733 | 26950 ft | 391 kts | 147° |
| 2026-04-30 20:04 | 52.34683 | -1.97272 | 27263 ft | 394 kts | 147° |
| 2026-04-30 20:04 | 52.32367 | -1.94775 | 27581 ft | 397 kts | 147° |
| 2026-04-30 20:04 | 52.30059 | -1.92288 | 27896 ft | 399 kts | 147° |
| 2026-04-30 20:05 | 52.25391 | -1.87272 | 28496 ft | 403 kts | 147° |
| 2026-04-30 20:05 | 52.23038 | -1.84748 | 28772 ft | 406 kts | 147° |
| 2026-04-30 20:05 | 52.18288 | -1.79660 | 29313 ft | 410 kts | 147° |
| 2026-04-30 20:06 | 52.15886 | -1.77092 | 29560 ft | 413 kts | 147° |
| 2026-04-30 20:06 | 52.13482 | -1.74525 | 29809 ft | 415 kts | 147° |
| 2026-04-30 20:06 | 52.11080 | -1.71964 | 30065 ft | 417 kts | 147° |
| 2026-04-30 20:06 | 52.08616 | -1.69339 | 30311 ft | 418 kts | 147° |
| 2026-04-30 20:07 | 52.06163 | -1.66729 | 30528 ft | 420 kts | 147° |
| 2026-04-30 20:07 | 52.03694 | -1.64097 | 30729 ft | 423 kts | 147° |
| 2026-04-30 20:07 | 51.98748 | -1.58852 | 31155 ft | 426 kts | 147° |
| 2026-04-30 20:08 | 51.96245 | -1.56210 | 31371 ft | 428 kts | 147° |
| 2026-04-30 20:08 | 51.93766 | -1.53594 | 31573 ft | 429 kts | 147° |
| 2026-04-30 20:08 | 51.91248 | -1.50943 | 31850 ft | 428 kts | 147° |
| 2026-04-30 20:08 | 51.88758 | -1.48324 | 32133 ft | 427 kts | 147° |
| 2026-04-30 20:09 | 51.86253 | -1.45690 | 32409 ft | 427 kts | 147° |
| 2026-04-30 20:09 | 51.83796 | -1.43110 | 32676 ft | 426 kts | 147° |
| 2026-04-30 20:09 | 51.78795 | -1.37865 | 33142 ft | 426 kts | 147° |
| 2026-04-30 20:10 | 51.73830 | -1.32679 | 33631 ft | 424 kts | 148° |
| 2026-04-30 20:10 | 51.71333 | -1.30073 | 33853 ft | 424 kts | 148° |
| 2026-04-30 20:10 | 51.68885 | -1.27524 | 34059 ft | 423 kts | 148° |
| 2026-04-30 20:11 | 51.63934 | -1.22374 | 34449 ft | 423 kts | 148° |
| 2026-04-30 20:11 | 51.61473 | -1.19819 | 34651 ft | 422 kts | 148° |
| 2026-04-30 20:11 | 51.58962 | -1.17214 | 34808 ft | 422 kts | 147° |
| 2026-04-30 20:12 | 51.54041 | -1.12120 | 35078 ft | 422 kts | 147° |
| 2026-04-30 20:12 | 51.51566 | -1.09564 | 35235 ft | 421 kts | 147° |
| 2026-04-30 20:12 | 51.49059 | -1.06978 | 35367 ft | 421 kts | 147° |
| 2026-04-30 20:13 | 51.46601 | -1.04448 | 35494 ft | 421 kts | 147° |
| 2026-04-30 20:13 | 51.44168 | -1.01948 | 35612 ft | 421 kts | 147° |
| 2026-04-30 20:13 | 51.41692 | -0.99407 | 35721 ft | 421 kts | 147° |
| 2026-04-30 20:13 | 51.39205 | -0.96858 | 35826 ft | 422 kts | 147° |
| 2026-04-30 20:14 | 51.36725 | -0.94318 | 35938 ft | 422 kts | 147° |
| 2026-04-30 20:14 | 51.34237 | -0.91773 | 36043 ft | 422 kts | 147° |
| 2026-04-30 20:14 | 51.31767 | -0.89248 | 36133 ft | 422 kts | 147° |
| 2026-04-30 20:15 | 51.26811 | -0.84193 | 36322 ft | 423 kts | 147° |
| 2026-04-30 20:15 | 51.21852 | -0.79148 | 36504 ft | 423 kts | 147° |
| 2026-04-30 20:15 | 51.19378 | -0.76635 | 36605 ft | 423 kts | 147° |
| 2026-04-30 20:16 | 51.16895 | -0.74118 | 36713 ft | 423 kts | 147° |
| 2026-04-30 20:16 | 51.14396 | -0.71586 | 36822 ft | 423 kts | 147° |
| 2026-04-30 20:16 | 51.11910 | -0.69068 | 36919 ft | 423 kts | 147° |
| 2026-04-30 20:17 | 51.06937 | -0.64048 | 37047 ft | 424 kts | 147° |
| 2026-04-30 20:17 | 51.01968 | -0.58893 | 37162 ft | 425 kts | 146° |
| 2026-04-30 20:18 | 50.97046 | -0.53609 | 37177 ft | 427 kts | 146° |
| 2026-04-30 20:18 | 50.92140 | -0.48368 | 37176 ft | 428 kts | 146° |
| 2026-04-30 20:19 | 50.87154 | -0.43067 | 37173 ft | 430 kts | 146° |
| 2026-04-30 20:19 | 50.82188 | -0.37803 | 37169 ft | 433 kts | 146° |
| 2026-04-30 20:20 | 50.77163 | -0.32489 | 37172 ft | 435 kts | 146° |
| 2026-04-30 20:20 | 50.72094 | -0.27147 | 37170 ft | 436 kts | 146° |
| 2026-04-30 20:21 | 50.66967 | -0.21764 | 37168 ft | 438 kts | 146° |
| 2026-04-30 20:21 | 50.61853 | -0.16406 | 37164 ft | 438 kts | 146° |
| 2026-04-30 20:22 | 50.56745 | -0.11066 | 37162 ft | 439 kts | 146° |
| 2026-04-30 20:22 | 50.51648 | -0.05749 | 37166 ft | 440 kts | 146° |
| 2026-04-30 20:23 | 50.46565 | -0.00463 | 37167 ft | 440 kts | 146° |
| 2026-04-30 20:23 | 50.41449 | 0.04842 | 37155 ft | 440 kts | 146° |
| 2026-04-30 20:24 | 50.36365 | 0.10100 | 37158 ft | 440 kts | 146° |
| 2026-04-30 20:24 | 50.31253 | 0.15371 | 37152 ft | 440 kts | 146° |
| 2026-04-30 20:25 | 50.23581 | 0.23262 | 37153 ft | 441 kts | 146° |
| 2026-04-30 20:26 | 50.15914 | 0.31133 | 37157 ft | 440 kts | 146° |
| 2026-04-30 20:26 | 50.08244 | 0.39006 | 37155 ft | 440 kts | 146° |
| 2026-04-30 20:27 | 49.97913 | 0.49564 | 37155 ft | 441 kts | 146° |
| 2026-04-30 20:28 | 49.87621 | 0.60036 | 37154 ft | 441 kts | 145° |
| 2026-04-30 20:30 | 49.75467 | 0.74843 | 37158 ft | 441 kts | 141° |
| 2026-04-30 20:31 | 49.61073 | 0.92846 | 37157 ft | 442 kts | 141° |
| 2026-04-30 20:32 | 49.49030 | 1.07812 | 37164 ft | 443 kts | 141° |
| 2026-04-30 20:33 | 49.41818 | 1.16726 | 37167 ft | 443 kts | 140° |
| 2026-04-30 20:34 | 49.34581 | 1.25628 | 37167 ft | 443 kts | 140° |
| 2026-04-30 20:35 | 49.27383 | 1.34452 | 37167 ft | 443 kts | 141° |
| 2026-04-30 20:35 | 49.20175 | 1.43258 | 37162 ft | 443 kts | 141° |
| 2026-04-30 20:36 | 49.15330 | 1.49158 | 37163 ft | 443 kts | 141° |
| 2026-04-30 20:37 | 49.08109 | 1.57923 | 37166 ft | 443 kts | 140° |
| 2026-04-30 20:37 | 49.03279 | 1.63768 | 37163 ft | 443 kts | 140° |
| 2026-04-30 20:38 | 48.98432 | 1.69618 | 37160 ft | 444 kts | 141° |
| 2026-04-30 20:38 | 48.93615 | 1.75417 | 37165 ft | 443 kts | 141° |
| 2026-04-30 20:39 | 48.86333 | 1.84158 | 37169 ft | 443 kts | 141° |
| 2026-04-30 20:40 | 48.79076 | 1.92837 | 37168 ft | 443 kts | 141° |
| 2026-04-30 20:40 | 48.74252 | 1.98587 | 37163 ft | 444 kts | 141° |
| 2026-04-30 20:41 | 48.66915 | 2.07307 | 37166 ft | 444 kts | 141° |
| 2026-04-30 20:41 | 48.62044 | 2.13078 | 37169 ft | 444 kts | 141° |
| 2026-04-30 20:42 | 48.57242 | 2.18927 | 37166 ft | 444 kts | 138° |
| 2026-04-30 20:43 | 48.50607 | 2.28699 | 37157 ft | 444 kts | 134° |
| 2026-04-30 20:43 | 48.46234 | 2.35324 | 37149 ft | 444 kts | 134° |
| 2026-04-30 20:44 | 48.39702 | 2.45196 | 37152 ft | 445 kts | 134° |
| 2026-04-30 20:45 | 48.30708 | 2.57970 | 37149 ft | 446 kts | 140° |
| 2026-04-30 20:45 | 48.25653 | 2.63443 | 37142 ft | 446 kts | 146° |
| 2026-04-30 20:46 | 48.14811 | 2.72578 | 37150 ft | 447 kts | 151° |
| 2026-04-30 20:47 | 48.06494 | 2.78954 | 37145 ft | 448 kts | 155° |
| 2026-04-30 20:48 | 47.97894 | 2.84420 | 37143 ft | 448 kts | 156° |
| 2026-04-30 20:48 | 47.90525 | 2.89106 | 37143 ft | 448 kts | 156° |
| 2026-04-30 20:49 | 47.80759 | 2.95286 | 37142 ft | 448 kts | 156° |
| 2026-04-30 20:50 | 47.72094 | 3.00747 | 37142 ft | 448 kts | 156° |
| 2026-04-30 20:50 | 47.66338 | 3.04363 | 37141 ft | 449 kts | 156° |
| 2026-04-30 20:51 | 47.60580 | 3.07973 | 37135 ft | 449 kts | 156° |
| 2026-04-30 20:51 | 47.51910 | 3.13387 | 37137 ft | 450 kts | 156° |
| 2026-04-30 20:52 | 47.46120 | 3.16987 | 37139 ft | 450 kts | 156° |
| 2026-04-30 20:53 | 47.37444 | 3.22370 | 37134 ft | 451 kts | 156° |
| 2026-04-30 20:53 | 47.31657 | 3.25950 | 37137 ft | 452 kts | 156° |
| 2026-04-30 20:54 | 47.22979 | 3.31304 | 37144 ft | 452 kts | 156° |
| 2026-04-30 20:55 | 47.14291 | 3.36646 | 37138 ft | 453 kts | 156° |
| 2026-04-30 20:55 | 47.08476 | 3.40210 | 37138 ft | 452 kts | 156° |
| 2026-04-30 20:56 | 46.99735 | 3.45553 | 37146 ft | 453 kts | 156° |
| 2026-04-30 20:57 | 46.91119 | 3.50804 | 37141 ft | 454 kts | 156° |
| 2026-04-30 20:57 | 46.85281 | 3.54350 | 37149 ft | 455 kts | 156° |
| 2026-04-30 20:58 | 46.76767 | 3.60436 | 37141 ft | 453 kts | 143° |
| 2026-04-30 20:58 | 46.72203 | 3.66766 | 37152 ft | 452 kts | 128° |
| 2026-04-30 20:59 | 46.69016 | 3.74549 | 37147 ft | 452 kts | 112° |
| 2026-04-30 20:59 | 46.67983 | 3.78872 | 37152 ft | 452 kts | 105° |
| 2026-04-30 21:00 | 46.64968 | 3.96730 | 37161 ft | 454 kts | 104° |
| 2026-04-30 21:01 | 46.62655 | 4.10055 | 37168 ft | 453 kts | 104° |
| 2026-04-30 21:02 | 46.60328 | 4.23365 | 37174 ft | 453 kts | 104° |
| 2026-04-30 21:02 | 46.58764 | 4.32270 | 37168 ft | 454 kts | 104° |
| 2026-04-30 21:03 | 46.57196 | 4.41148 | 37175 ft | 454 kts | 104° |
| 2026-04-30 21:03 | 46.55619 | 4.50026 | 37165 ft | 454 kts | 104° |
| 2026-04-30 21:04 | 46.54042 | 4.58870 | 37172 ft | 453 kts | 104° |
| 2026-04-30 21:04 | 46.51662 | 4.72126 | 37182 ft | 453 kts | 104° |
| 2026-04-30 21:05 | 46.50068 | 4.80959 | 37186 ft | 453 kts | 104° |
| 2026-04-30 21:05 | 46.48455 | 4.89850 | 37172 ft | 453 kts | 104° |
| 2026-04-30 21:06 | 46.46852 | 4.98649 | 37162 ft | 453 kts | 104° |
| 2026-04-30 21:06 | 46.45229 | 5.07503 | 37169 ft | 454 kts | 104° |
| 2026-04-30 21:07 | 46.43599 | 5.16362 | 37165 ft | 454 kts | 104° |
| 2026-04-30 21:07 | 46.41975 | 5.25158 | 37162 ft | 453 kts | 104° |
| 2026-04-30 21:08 | 46.40111 | 5.33931 | 37160 ft | 454 kts | 110° |
| 2026-04-30 21:08 | 46.37464 | 5.42224 | 37170 ft | 456 kts | 117° |
| 2026-04-30 21:09 | 46.34030 | 5.49956 | 37173 ft | 458 kts | 125° |
| 2026-04-30 21:09 | 46.29942 | 5.57113 | 37187 ft | 459 kts | 129° |
| 2026-04-30 21:10 | 46.25776 | 5.64148 | 37192 ft | 460 kts | 129° |
| 2026-04-30 21:10 | 46.21619 | 5.71152 | 37199 ft | 460 kts | 130° |
| 2026-04-30 21:11 | 46.17441 | 5.78185 | 37207 ft | 462 kts | 129° |
| 2026-04-30 21:11 | 46.13280 | 5.85175 | 37203 ft | 463 kts | 129° |
| 2026-04-30 21:12 | 46.09055 | 5.92253 | 37200 ft | 463 kts | 129° |
| 2026-04-30 21:12 | 46.04839 | 5.99299 | 37201 ft | 463 kts | 129° |
| 2026-04-30 21:13 | 46.00596 | 6.06378 | 37222 ft | 463 kts | 129° |
| 2026-04-30 21:13 | 45.96371 | 6.13405 | 37227 ft | 463 kts | 129° |
| 2026-04-30 21:14 | 45.92127 | 6.20445 | 37232 ft | 465 kts | 129° |
| 2026-04-30 21:14 | 45.87866 | 6.27500 | 37231 ft | 464 kts | 129° |
| 2026-04-30 21:15 | 45.83571 | 6.34450 | 37255 ft | 466 kts | 132° |
| 2026-04-30 21:15 | 45.78844 | 6.40812 | 37256 ft | 469 kts | 139° |
| 2026-04-30 21:16 | 45.73631 | 6.46434 | 37264 ft | 470 kts | 143° |
| 2026-04-30 21:16 | 45.68282 | 6.51865 | 37264 ft | 470 kts | 143° |
| 2026-04-30 21:17 | 45.62894 | 6.57332 | 37282 ft | 472 kts | 143° |
| 2026-04-30 21:17 | 45.57507 | 6.62788 | 37277 ft | 473 kts | 143° |
| 2026-04-30 21:18 | 45.52117 | 6.68237 | 37266 ft | 474 kts | 144° |
| 2026-04-30 21:18 | 45.46697 | 6.73701 | 37284 ft | 475 kts | 143° |
| 2026-04-30 21:19 | 45.41256 | 6.79177 | 37284 ft | 475 kts | 143° |
| 2026-04-30 21:19 | 45.35860 | 6.84596 | 37298 ft | 476 kts | 143° |
| 2026-04-30 21:20 | 45.30420 | 6.90039 | 37301 ft | 477 kts | 143° |
| 2026-04-30 21:20 | 45.25168 | 6.95873 | 37306 ft | 476 kts | 137° |
| 2026-04-30 21:21 | 45.20338 | 7.02389 | 37339 ft | 476 kts | 134° |
| 2026-04-30 21:22 | 45.13213 | 7.12284 | 37302 ft | 476 kts | 132° |
| 2026-04-30 21:23 | 45.05026 | 7.26987 | 37269 ft | 475 kts | 123° |
| 2026-04-30 21:23 | 44.99297 | 7.38495 | 37304 ft | 477 kts | 125° |
| 2026-04-30 21:24 | 44.95026 | 7.45723 | 37307 ft | 479 kts | 130° |
| 2026-04-30 21:24 | 44.90516 | 7.52714 | 37305 ft | 480 kts | 130° |
| 2026-04-30 21:25 | 44.83711 | 7.63241 | 37296 ft | 480 kts | 130° |
| 2026-04-30 21:26 | 44.76940 | 7.73690 | 37288 ft | 482 kts | 131° |
| 2026-04-30 21:27 | 44.70096 | 7.84213 | 37293 ft | 483 kts | 131° |
| 2026-04-30 21:27 | 44.65534 | 7.91209 | 37284 ft | 484 kts | 131° |
| 2026-04-30 21:28 | 44.58709 | 8.01639 | 37278 ft | 485 kts | 131° |
| 2026-04-30 21:29 | 44.51813 | 8.12137 | 37271 ft | 486 kts | 131° |
| 2026-04-30 21:30 | 44.40276 | 8.29615 | 37264 ft | 488 kts | 131° |
| 2026-04-30 21:31 | 44.28691 | 8.47057 | 37248 ft | 490 kts | 131° |
| 2026-04-30 21:32 | 44.21724 | 8.57492 | 37240 ft | 491 kts | 131° |
| 2026-04-30 21:32 | 44.17071 | 8.64440 | 37236 ft | 492 kts | 131° |
| 2026-04-30 21:33 | 44.10014 | 8.74952 | 37220 ft | 493 kts | 132° |
| 2026-04-30 21:34 | 44.05337 | 8.81888 | 37224 ft | 494 kts | 132° |
| 2026-04-30 21:34 | 43.98280 | 8.92329 | 37211 ft | 494 kts | 132° |
| 2026-04-30 21:35 | 43.93598 | 8.99239 | 37209 ft | 496 kts | 132° |
| 2026-04-30 21:35 | 43.88860 | 9.06213 | 37204 ft | 496 kts | 132° |
| 2026-04-30 21:36 | 43.84139 | 9.13141 | 37207 ft | 497 kts | 132° |
| 2026-04-30 21:37 | 43.74017 | 9.26118 | 37211 ft | 499 kts | 140° |
| 2026-04-30 21:37 | 43.68685 | 9.32214 | 37197 ft | 500 kts | 140° |
| 2026-04-30 21:38 | 43.63315 | 9.38358 | 37200 ft | 500 kts | 140° |
| 2026-04-30 21:38 | 43.57963 | 9.44474 | 37201 ft | 500 kts | 140° |
| 2026-04-30 21:39 | 43.52569 | 9.50496 | 37200 ft | 501 kts | 143° |
| 2026-04-30 21:39 | 43.46773 | 9.55763 | 37209 ft | 501 kts | 150° |
| 2026-04-30 21:40 | 43.40674 | 9.60302 | 37207 ft | 501 kts | 152° |
| 2026-04-30 21:40 | 43.34526 | 9.64817 | 37208 ft | 501 kts | 153° |
| 2026-04-30 21:41 | 43.28394 | 9.69328 | 37206 ft | 501 kts | 153° |
| 2026-04-30 21:41 | 43.22245 | 9.73846 | 37206 ft | 501 kts | 153° |
| 2026-04-30 21:42 | 43.16124 | 9.78340 | 37198 ft | 503 kts | 153° |
| 2026-04-30 21:42 | 43.09959 | 9.82854 | 37194 ft | 503 kts | 154° |
| 2026-04-30 21:43 | 43.03773 | 9.87375 | 37191 ft | 503 kts | 154° |
| 2026-04-30 21:43 | 42.97601 | 9.91872 | 37195 ft | 502 kts | 154° |
| 2026-04-30 21:44 | 42.91469 | 9.96333 | 37189 ft | 503 kts | 154° |
| 2026-04-30 21:44 | 42.85247 | 10.00846 | 37190 ft | 505 kts | 154° |
| 2026-04-30 21:45 | 42.79071 | 10.05316 | 37184 ft | 504 kts | 154° |
| 2026-04-30 21:45 | 42.72887 | 10.09786 | 37189 ft | 505 kts | 154° |
| 2026-04-30 21:46 | 42.66676 | 10.14262 | 37192 ft | 506 kts | 154° |
| 2026-04-30 21:46 | 42.60458 | 10.18732 | 37195 ft | 506 kts | 154° |
| 2026-04-30 21:47 | 42.54241 | 10.23194 | 37185 ft | 507 kts | 154° |
| 2026-04-30 21:47 | 42.48036 | 10.27636 | 37187 ft | 508 kts | 155° |
| 2026-04-30 21:48 | 42.41767 | 10.32114 | 37183 ft | 508 kts | 155° |
| 2026-04-30 21:48 | 42.35511 | 10.36573 | 37176 ft | 508 kts | 155° |
| 2026-04-30 21:49 | 42.29136 | 10.40577 | 37177 ft | 506 kts | 160° |
| 2026-04-30 21:49 | 42.22621 | 10.44268 | 37176 ft | 506 kts | 161° |
| 2026-04-30 21:50 | 42.16149 | 10.47930 | 37171 ft | 506 kts | 161° |
| 2026-04-30 21:50 | 42.09590 | 10.51639 | 37170 ft | 506 kts | 161° |
| 2026-04-30 21:51 | 42.03115 | 10.55293 | 37163 ft | 507 kts | 161° |
| 2026-04-30 21:51 | 41.96595 | 10.58971 | 37155 ft | 507 kts | 161° |
| 2026-04-30 21:52 | 41.90075 | 10.62636 | 37158 ft | 507 kts | 161° |
| 2026-04-30 21:52 | 41.83593 | 10.66274 | 37146 ft | 507 kts | 162° |
| 2026-04-30 21:53 | 41.77031 | 10.69950 | 37144 ft | 508 kts | 162° |
| 2026-04-30 21:53 | 41.70509 | 10.73592 | 37144 ft | 509 kts | 162° |
| 2026-04-30 21:54 | 41.63934 | 10.77257 | 37143 ft | 509 kts | 162° |
| 2026-04-30 21:54 | 41.57340 | 10.80925 | 37137 ft | 510 kts | 162° |
| 2026-04-30 21:55 | 41.50916 | 10.84489 | 37137 ft | 510 kts | 163° |
| 2026-04-30 21:55 | 41.44336 | 10.88132 | 37131 ft | 510 kts | 163° |
| 2026-04-30 21:56 | 41.37759 | 10.91768 | 37125 ft | 511 kts | 163° |
| 2026-04-30 21:56 | 41.31211 | 10.95380 | 37123 ft | 511 kts | 163° |
| 2026-04-30 21:57 | 41.24743 | 10.98937 | 37121 ft | 511 kts | 163° |
| 2026-04-30 21:57 | 41.18099 | 11.02581 | 37115 ft | 513 kts | 163° |
| 2026-04-30 21:58 | 41.11480 | 11.06210 | 37108 ft | 513 kts | 163° |
| 2026-04-30 21:58 | 41.04829 | 11.09846 | 37116 ft | 513 kts | 163° |
| 2026-04-30 21:59 | 40.98226 | 11.13445 | 37115 ft | 515 kts | 163° |
| 2026-04-30 22:00 | 40.88301 | 11.18845 | 37127 ft | 514 kts | 164° |
| 2026-04-30 22:00 | 40.78691 | 11.24735 | 37124 ft | 518 kts | 157° |
| 2026-04-30 22:01 | 40.72284 | 11.29311 | 37138 ft | 518 kts | 157° |
| 2026-04-30 22:01 | 40.65980 | 11.33808 | 37134 ft | 518 kts | 157° |
| 2026-04-30 22:02 | 40.59656 | 11.38296 | 37138 ft | 517 kts | 157° |
| 2026-04-30 22:02 | 40.53273 | 11.42811 | 37140 ft | 517 kts | 157° |
| 2026-04-30 22:03 | 40.47011 | 11.47229 | 37129 ft | 517 kts | 157° |
| 2026-04-30 22:03 | 40.40664 | 11.51699 | 37137 ft | 516 kts | 157° |
| 2026-04-30 22:04 | 40.34300 | 11.56167 | 37135 ft | 517 kts | 157° |
| 2026-04-30 22:05 | 40.24754 | 11.62856 | 37133 ft | 517 kts | 157° |
| 2026-04-30 22:05 | 40.18416 | 11.67287 | 37136 ft | 516 kts | 158° |
| 2026-04-30 22:06 | 40.12056 | 11.71722 | 37138 ft | 517 kts | 158° |
| 2026-04-30 22:06 | 40.02507 | 11.78361 | 37132 ft | 517 kts | 158° |
| 2026-04-30 22:07 | 39.96169 | 11.82761 | 37124 ft | 517 kts | 158° |
| 2026-04-30 22:07 | 39.89905 | 11.87097 | 37126 ft | 516 kts | 158° |
| 2026-04-30 22:08 | 39.83588 | 11.91518 | 37125 ft | 517 kts | 158° |
| 2026-04-30 22:08 | 39.77344 | 11.96027 | 37129 ft | 517 kts | 157° |
| 2026-04-30 22:09 | 39.71052 | 12.00569 | 37126 ft | 517 kts | 157° |
| 2026-04-30 22:09 | 39.65154 | 12.04805 | 37132 ft | 516 kts | 157° |
| 2026-04-30 22:10 | 39.58524 | 12.09555 | 37125 ft | 516 kts | 157° |
| 2026-04-30 22:10 | 39.52277 | 12.14016 | 37121 ft | 516 kts | 157° |
| 2026-04-30 22:11 | 39.42835 | 12.20741 | 37121 ft | 515 kts | 157° |
| 2026-04-30 22:12 | 39.36531 | 12.25222 | 37106 ft | 515 kts | 157° |
| 2026-04-30 22:12 | 39.30228 | 12.29693 | 37373 ft | 515 kts | 157° |
| 2026-04-30 22:12 | 39.27117 | 12.31896 | 37229 ft | 512 kts | 157° |
| 2026-04-30 22:13 | 39.23987 | 12.34109 | 37015 ft | 512 kts | 157° |
| 2026-04-30 22:13 | 39.17764 | 12.38504 | 37099 ft | 514 kts | 157° |
| 2026-04-30 22:14 | 39.11474 | 12.42936 | 37205 ft | 513 kts | 157° |
| 2026-04-30 22:14 | 39.05215 | 12.47339 | 37125 ft | 512 kts | 157° |
| 2026-04-30 22:15 | 38.98960 | 12.51733 | 37104 ft | 511 kts | 157° |
| 2026-04-30 22:15 | 38.95847 | 12.53914 | 36822 ft | 510 kts | 157° |
| 2026-04-30 22:15 | 38.92754 | 12.56079 | 37269 ft | 510 kts | 157° |
| 2026-04-30 22:15 | 38.89978 | 12.58019 | 37152 ft | 511 kts | 157° |
| 2026-04-30 22:16 | 38.87494 | 12.59758 | 36894 ft | 508 kts | 157° |
| 2026-04-30 22:17 | 38.78326 | 12.66148 | 37105 ft | 514 kts | 158° |
| 2026-04-30 22:17 | 38.68892 | 12.72709 | 37127 ft | 515 kts | 158° |
| 2026-04-30 22:18 | 38.59471 | 12.79246 | 37142 ft | 511 kts | 158° |
| 2026-04-30 22:19 | 38.50120 | 12.85709 | 37092 ft | 509 kts | 158° |
| 2026-04-30 22:20 | 38.40777 | 12.92148 | 37088 ft | 510 kts | 158° |
| 2026-04-30 22:20 | 38.31438 | 12.98568 | 37082 ft | 509 kts | 158° |
| 2026-04-30 22:21 | 38.25176 | 13.02859 | 37076 ft | 509 kts | 158° |
| 2026-04-30 22:21 | 38.18938 | 13.07131 | 37075 ft | 509 kts | 158° |
| 2026-04-30 22:22 | 38.12733 | 13.11370 | 37078 ft | 509 kts | 158° |
| 2026-04-30 22:22 | 38.06488 | 13.15625 | 37079 ft | 503 kts | 157° |
| 2026-04-30 22:23 | 38.03446 | 13.17625 | 37081 ft | 490 kts | 160° |
| 2026-04-30 22:23 | 38.00319 | 13.19401 | 37092 ft | 486 kts | 163° |
| 2026-04-30 22:23 | 37.94096 | 13.22679 | 37099 ft | 486 kts | 164° |
| 2026-04-30 22:24 | 37.88047 | 13.25852 | 37100 ft | 485 kts | 163° |
| 2026-04-30 22:24 | 37.81712 | 13.29185 | 37076 ft | 482 kts | 163° |
| 2026-04-30 22:25 | 37.78658 | 13.30794 | 36789 ft | 479 kts | 163° |
| 2026-04-30 22:25 | 37.75560 | 13.32422 | 36192 ft | 477 kts | 163° |
| 2026-04-30 22:25 | 37.72496 | 13.34028 | 35554 ft | 476 kts | 163° |
| 2026-04-30 22:25 | 37.69459 | 13.35620 | 34872 ft | 476 kts | 163° |
| 2026-04-30 22:26 | 37.63295 | 13.38846 | 33384 ft | 479 kts | 163° |
| 2026-04-30 22:26 | 37.60629 | 13.40240 | 32773 ft | 480 kts | 163° |
| 2026-04-30 22:26 | 37.57203 | 13.42030 | 31981 ft | 482 kts | 163° |
| 2026-04-30 22:27 | 37.54131 | 13.43635 | 31272 ft | 483 kts | 163° |
| 2026-04-30 22:27 | 37.51044 | 13.45245 | 30577 ft | 483 kts | 163° |
| 2026-04-30 22:27 | 37.44787 | 13.48507 | 29149 ft | 483 kts | 163° |
| 2026-04-30 22:28 | 37.38647 | 13.51706 | 28148 ft | 473 kts | 162° |
| 2026-04-30 22:28 | 37.35612 | 13.53284 | 27614 ft | 469 kts | 162° |
| 2026-04-30 22:29 | 37.26706 | 13.57904 | 26036 ft | 458 kts | 162° |
| 2026-04-30 22:29 | 37.23732 | 13.59444 | 25504 ft | 455 kts | 162° |
| 2026-04-30 22:30 | 37.12230 | 13.65386 | 23487 ft | 442 kts | 162° |
| 2026-04-30 22:31 | 37.03787 | 13.69739 | 22068 ft | 430 kts | 162° |
| 2026-04-30 22:32 | 36.95594 | 13.73951 | 20615 ft | 421 kts | 162° |
| 2026-04-30 22:32 | 36.90208 | 13.76715 | 19650 ft | 415 kts | 162° |
| 2026-04-30 22:33 | 36.82243 | 13.80798 | 18201 ft | 406 kts | 161° |
| 2026-04-30 22:33 | 36.77060 | 13.83451 | 17272 ft | 400 kts | 161° |
| 2026-04-30 22:34 | 36.69437 | 13.87342 | 15888 ft | 391 kts | 161° |
| 2026-04-30 22:35 | 36.64438 | 13.89891 | 14952 ft | 386 kts | 160° |
| 2026-04-30 22:36 | 36.54586 | 13.94904 | 13081 ft | 377 kts | 160° |
| 2026-04-30 22:36 | 36.52189 | 13.96121 | 12631 ft | 374 kts | 160° |
| 2026-04-30 22:37 | 36.45086 | 13.99723 | 11701 ft | 352 kts | 160° |
| 2026-04-30 22:37 | 36.42858 | 14.00851 | 11518 ft | 342 kts | 160° |
| 2026-04-30 22:37 | 36.38577 | 14.03018 | 11152 ft | 323 kts | 160° |
| 2026-04-30 22:38 | 36.34462 | 14.05096 | 10522 ft | 315 kts | 160° |
| 2026-04-30 22:38 | 36.30414 | 14.07135 | 9778 ft | 312 kts | 159° |
| 2026-04-30 22:39 | 36.28417 | 14.08141 | 9415 ft | 310 kts | 159° |
| 2026-04-30 22:39 | 36.22504 | 14.11120 | 8382 ft | 302 kts | 159° |
| 2026-04-30 22:40 | 36.16708 | 14.14032 | 7328 ft | 295 kts | 159° |
| 2026-04-30 22:41 | 36.11058 | 14.16868 | 6279 ft | 288 kts | 159° |
| 2026-04-30 22:41 | 36.07437 | 14.18682 | 5611 ft | 283 kts | 158° |
| 2026-04-30 22:42 | 36.02361 | 14.24937 | 4302 ft | 263 kts | 106° |
| 2026-04-30 22:43 | 36.00956 | 14.28869 | 3653 ft | 242 kts | 127° |
| 2026-04-30 22:43 | 35.98769 | 14.31676 | 3035 ft | 207 kts | 133° |
| 2026-04-30 22:44 | 35.96880 | 14.33958 | 2988 ft | 183 kts | 132° |
| 2026-04-30 22:45 | 35.93527 | 14.38107 | 2427 ft | 161 kts | 130° |
| 2026-04-30 22:45 | 35.91966 | 14.40041 | 2005 ft | 159 kts | 129° |
| 2026-04-30 22:46 | 35.90440 | 14.41928 | 1566 ft | 143 kts | 129° |
| 2026-04-30 22:47 | 35.87688 | 14.45346 | 855 ft | 140 kts | 130° |
| 2026-04-30 22:47 | 35.86305 | 14.47052 | 479 ft | 141 kts | 131° |
| 2026-04-30 22:48 | 35.84926 | 14.48774 | 261 ft | 129 kts | 131° |
| 2026-04-30 22:49 | 35.84455 | 14.49451 | 249 ft | 10 kts | 95° |
| 2026-04-30 22:49 | 35.84581 | 14.49501 | 248 ft | 12 kts | 315° |
| 2026-04-30 22:50 | 35.84826 | 14.49198 | 249 ft | 12 kts | 315° |
| 2026-04-30 22:51 | 35.84930 | 14.49066 | 253 ft | 10 kts | 313° |
| 2026-04-30 22:51 | 35.84988 | 14.48927 | 256 ft | 8 kts | 285° |
| 2026-04-30 22:52 | 35.85001 | 14.48866 | 258 ft | 5 kts | 284° |
| 2026-04-30 22:52 | 35.85034 | 14.48719 | 262 ft | 18 kts | 285° |
| 2026-04-30 22:53 | 35.85205 | 14.48432 | 265 ft | 19 kts | 315° |
| 2026-04-30 22:53 | 35.85397 | 14.48194 | 265 ft | 21 kts | 315° |
| 2026-04-30 22:53 | 35.85513 | 14.48050 | 266 ft | 24 kts | 314° |
| 2026-04-30 22:54 | 35.85728 | 14.47771 | 273 ft | 18 kts | 299° |
| 2026-04-30 22:55 | 35.85657 | 14.47367 | 275 ft | 16 kts | 270° |
| 2026-04-30 22:55 | 35.85638 | 14.47109 | 275 ft | 12 kts | 245° |
| 2026-04-30 22:56 | 35.85629 | 14.47088 | 275 ft | 0 kts | 239° |
| 2026-04-30 22:57 | 35.85628 | 14.47086 | 275 ft | 0 kts | 239° |
| 2026-04-30 22:57 | 35.85628 | 14.47085 | 275 ft | 0 kts | 239° |